Weather observations for the past three days for
Winona, Winona Municipal Airport-Max Conrad Field
| Date | Time (cdt) | Wind (kph) | Vis. (km) | Weather | Sky Cond. | Temperature (ºC) | Relative Humidity | Wind Chill (°C) | Heat Index (°C) | Pressure | Precipitation (cm) | ||||||
|---|---|---|---|---|---|---|---|---|---|---|---|---|---|---|---|---|---|
| Air | Dwpt | 6 hour | altimeter (cm) | sea level (mb) | 1 hr | 3 hr | 6 hr | ||||||||||
| Max. | Min. | ||||||||||||||||
| 06 | 04:15 | NW 9 | 16.09 | Fair | CLR | 3 | -3 | 65% | 1 | 76.05 | 0.0 | ||||||
| 06 | 03:55 | W 9 | 16.09 | Fair | CLR | 2 | -3 | 70% | -0 | 76.05 | 0.0 | ||||||
| 06 | 03:35 | NW 9 | 16.09 | Fair | CLR | 2 | -3 | 70% | -0 | 76.02 | 0.0 | ||||||
| 06 | 03:15 | NW 9 | 16.09 | Fair | CLR | 3 | -3 | 65% | 1 | 76.02 | 0.0 | ||||||
| 06 | 02:55 | NW 9 | 16.09 | Fair | CLR | 3 | -3 | 65% | 1 | 76.02 | 0.0 | ||||||
| 06 | 02:35 | W 6 | 16.09 | Fair | CLR | 5 | -3 | 57% | 76.02 | 0.0 | |||||||
| 06 | 02:15 | NW 7 | 16.09 | Fair | CLR | 3 | -3 | 65% | 1 | 76 | 0.0 | ||||||
| 06 | 01:55 | NW 6 | 16.09 | Fair | CLR | 5 | -3 | 57% | 75.97 | 0.0 | |||||||
| 06 | 01:35 | NW 13 | 16.09 | Fair | CLR | 5 | -4 | 53% | 2 | 75.97 | 0.0 | ||||||
| 06 | 01:15 | NW 15 | 16.09 | Fair | CLR | 5 | -3 | 57% | 2 | 75.97 | 0.0 | ||||||
| 06 | 00:55 | NW 13 | 16.09 | Fair | CLR | 6 | -3 | 53% | 4 | 75.97 | 0.0 | ||||||
| 06 | 00:35 | NW 19 | 16.09 | Fair | CLR | 6 | -3 | 53% | 3 | 75.95 | 0.0 | ||||||
| 06 | 00:15 | NW 13 | 16.09 | Partly Cloudy | SCT080 | 6 | -3 | 53% | 4 | 75.95 | 0.0 | ||||||
| 05 | 23:55 | W 9 | 16.09 | Mostly Cloudy | BKN080 | 7 | -3 | 49% | 5 | 75.92 | 0.0 | ||||||
| 05 | 23:35 | W 7 | 16.09 | Overcast | OVC080 | 7 | -3 | 49% | 6 | 75.92 | 0.0 | ||||||
| 05 | 23:15 | W 7 | 16.09 | Overcast | OVC080 | 8 | -4 | 43% | 7 | 75.9 | 0.0 | ||||||
| 05 | 22:55 | W 9 | 16.09 | Overcast | OVC090 | 8 | -4 | 43% | 7 | 75.9 | 0.0 | ||||||
| 05 | 22:35 | W 7 | 16.09 | Overcast | OVC090 | 8 | -4 | 43% | 7 | 75.9 | 0.0 | ||||||
| 05 | 22:15 | W 7 | 16.09 | Overcast | OVC090 | 8 | -4 | 43% | 7 | 75.9 | 0.0 | ||||||
| 05 | 21:55 | W 7 | 16.09 | Overcast | OVC090 | 8 | -4 | 43% | 7 | 75.9 | 0.0 | ||||||
| 05 | 21:35 | W 9 | 16.09 | Overcast | OVC090 | 8 | -4 | 43% | 7 | 75.87 | 0.0 | ||||||
| 05 | 21:15 | W 9 | 16.09 | Overcast | OVC090 | 8 | -4 | 43% | 7 | 75.87 | 0.0 | ||||||
| 05 | 20:55 | NW 9 | 16.09 | Overcast | OVC090 | 9 | -3 | 43% | 8 | 75.84 | 0.0 | ||||||
| 05 | 20:35 | NW 11 | 16.09 | Overcast | OVC090 | 9 | -4 | 40% | 8 | 75.82 | 0.0 | ||||||
| 05 | 20:15 | NW 11 | 16.09 | Overcast | OVC090 | 9 | -4 | 40% | 8 | 75.82 | 0.0 | ||||||
| 05 | 19:55 | NW 11 | 16.09 | Overcast | OVC090 | 9 | -5 | 37% | 8 | 75.82 | 0.0 | ||||||
| 05 | 19:35 | NW 11 | 16.09 | Partly Cloudy | SCT090 | 9 | -4 | 40% | 8 | 75.79 | 0.0 | ||||||
| 05 | 19:15 | W 9 G 15 | 16.09 | Partly Cloudy | SCT085 | 10 | -4 | 37% | 9 | 75.79 | 0.0 | ||||||
| 05 | 18:55 | NW 17 | 16.09 | Mostly Cloudy | BKN085 | 10 | -5 | 35% | 8 | 75.79 | 0.0 | ||||||
| 05 | 18:35 | W 15 | 16.09 | Overcast | OVC085 | 10 | -4 | 37% | 8 | 75.79 | 0.0 | ||||||
| 05 | 18:15 | NW 20 | 16.09 | Overcast | OVC085 | 10 | -5 | 35% | 8 | 75.79 | 0.0 | ||||||
| 05 | 17:55 | NW 17 | 16.09 | Overcast | OVC085 | 10 | -5 | 35% | 8 | 75.79 | 0.0 | ||||||
| 05 | 17:35 | NW 15 | 16.09 | Overcast | OVC085 | 11 | -5 | 32% | 75.79 | 0.0 | |||||||
| 05 | 17:15 | NW 19 | 16.09 | Overcast | OVC085 | 10 | -6 | 32% | 8 | 75.79 | 0.0 | ||||||
| 05 | 16:55 | NW 17 | 16.09 | Overcast | OVC085 | 10 | -6 | 32% | 8 | 75.79 | 0.0 | ||||||
| 05 | 16:35 | NW 19 G 31 | 16.09 | Mostly Cloudy | BKN085 | 10 | -6 | 32% | 8 | 75.79 | 0.0 | ||||||
| 05 | 16:15 | NW 22 G 35 | 16.09 | Overcast | OVC075 | 11 | -6 | 30% | 75.79 | 0.0 | |||||||
| 05 | 15:55 | NW 19 G 30 | 16.09 | Mostly Cloudy | BKN075 | 11 | -7 | 28% | 75.79 | 0.0 | |||||||
| 05 | 15:35 | W 19 G 30 | 16.09 | Mostly Cloudy | BKN075 | 12 | -6 | 28% | 75.79 | 0.0 | |||||||
| 05 | 15:15 | NW 17 G 31 | 16.09 | Overcast | OVC070 | 11 | -6 | 30% | 75.79 | 0.0 | |||||||
| 05 | 14:55 | W 19 G 35 | 16.09 | Overcast | OVC070 | 11 | -6 | 30% | 75.82 | 0.0 | |||||||
| 05 | 14:35 | NW 22 G 35 | 16.09 | Overcast | OVC070 | 11 | -6 | 30% | 75.82 | 0.0 | |||||||
| 05 | 14:28 | W 24 G 33 | 16.09 | Overcast | OVC070 | 11 | -6 | 30% | 75.82 | 0.0 | |||||||
| 05 | 14:00 | W 17 | 16.09 | Overcast | OVC070 | 12 | -6 | 28% | 75.82 | 0.0 | |||||||
| 05 | 13:43 | W 13 | 16.09 | Mostly Cloudy | BKN070 | 11 | -7 | 28% | 75.82 | 0.0 | |||||||
| 05 | 13:26 | W 19 | 16.09 | Partly Cloudy | SCT070 | 11 | -7 | 28% | 75.79 | 0.0 | |||||||
| 05 | 13:03 | NW 20 | 16.09 | Partly Cloudy | SCT070 | 10 | -7 | 30% | 8 | 75.79 | 0.0 | ||||||
| 05 | 12:42 | NW 26 | 16.09 | Partly Cloudy | SCT070 | 11 | -6 | 30% | 75.79 | 0.0 | |||||||
| 05 | 12:22 | NW 31 | 16.09 | Partly Cloudy | SCT070 | 10 | -7 | 30% | 7 | 75.82 | 0.0 | ||||||
| 05 | 12:02 | W 20 | 16.09 | Mostly Cloudy | BKN070 | 10 | -6 | 32% | 8 | 75.82 | 0.0 | ||||||
| 05 | 11:22 | NW 17 | 16.09 | Partly Cloudy | SCT070 | 10 | -6 | 32% | 8 | 75.82 | 0.0 | ||||||
| 05 | 11:06 | NW 20 | 16.09 | Partly Cloudy | SCT070 | 11 | -6 | 30% | 75.82 | 0.0 | |||||||
| 05 | 10:46 | NW 9 | 16.09 | Fair | CLR | 10 | -6 | 32% | 9 | 75.82 | 0.0 | ||||||
| 05 | 10:23 | NW 15 | 16.09 | Fair | CLR | 9 | -6 | 34% | 7 | 75.79 | 0.0 | ||||||
| 05 | 10:02 | N 20 | 16.09 | Fair | CLR | 9 | -7 | 32% | 6 | 75.79 | 0.0 | ||||||
| 05 | 09:30 | N 15 | 16.09 | Fair | CLR | 9 | -7 | 32% | 7 | 75.79 | 0.0 | ||||||
| 05 | 09:02 | NW 15 | 16.09 | Fair | CLR | 8 | -7 | 34% | 6 | 75.79 | 0.0 | ||||||
| 05 | 08:40 | NW 20 | 16.09 | Fair | CLR | 8 | -6 | 37% | 5 | 75.79 | 0.0 | ||||||
| 05 | 08:23 | NW 20 | 16.09 | Fair | CLR | 7 | -6 | 39% | 4 | 75.79 | 0.0 | ||||||
| 05 | 08:01 | NW 15 | 16.09 | Fair | CLR | 7 | -4 | 46% | 5 | 75.77 | 0.0 | ||||||
| 05 | 07:40 | NW 11 | 16.09 | Fair | CLR | 6 | -3 | 53% | 4 | 75.74 | 0.0 | ||||||
| 05 | 07:23 | NW 11 | 16.09 | Fair | CLR | 6 | -3 | 53% | 4 | 75.72 | 0.0 | ||||||
| 05 | 07:01 | W 11 | 16.09 | Fair | CLR | 5 | -3 | 57% | 3 | 0 | 0.0 | ||||||
| 05 | 06:41 | W 9 | 16.09 | Fair | CLR | 5 | -4 | 53% | 3 | 75.64 | 0.0 | ||||||
| 05 | 06:22 | W 7 | 16.09 | Fair | CLR | 5 | -3 | 57% | 4 | 75.64 | 0.0 | ||||||
| 05 | 06:01 | W 9 | 16.09 | Fair | CLR | 5 | -4 | 53% | 3 | 75.62 | 0.0 | ||||||
| 05 | 05:42 | W 11 | 16.09 | Fair | CLR | 5 | -4 | 53% | 3 | 75.62 | 0.0 | ||||||
| 05 | 05:23 | NW 9 | 16.09 | Fair | CLR | 4 | -3 | 61% | 2 | 75.57 | 0.0 | ||||||
| 05 | 05:05 | W 9 | 16.09 | Fair | CLR | 5 | -4 | 53% | 3 | 75.57 | 0.0 | ||||||
| 05 | 04:43 | NW 9 | 16.09 | Fair | CLR | 6 | -4 | 49% | 4 | 75.57 | 0.0 | ||||||
| 05 | 04:25 | NW 11 | 16.09 | Fair | CLR | 6 | -4 | 49% | 4 | 75.57 | 0.0 | ||||||
| 05 | 04:05 | NW 13 | 16.09 | Fair | CLR | 6 | -4 | 49% | 4 | 75.54 | 0.0 | ||||||
| 05 | 03:45 | W 13 | 16.09 | Fair | CLR | 7 | -4 | 46% | 5 | 75.51 | 0.0 | ||||||
| 05 | 03:25 | W 13 | 16.09 | Fair | CLR | 7 | -4 | 46% | 5 | 75.49 | 0.0 | ||||||
| 05 | 03:05 | W 9 | 16.09 | Fair | CLR | 7 | -4 | 46% | 5 | 75.49 | 0.0 | ||||||
| 05 | 02:29 | NW 11 | 16.09 | Fair | CLR | 7 | -3 | 49% | 5 | 75.46 | 0.0 | ||||||
| 05 | 02:06 | NW 9 | 16.09 | Fair | CLR | 6 | -3 | 53% | 4 | 75.46 | 0.0 | ||||||
| 05 | 01:50 | NW 11 | 16.09 | Fair | CLR | 8 | -4 | 43% | 6 | 75.46 | 0.0 | ||||||
| 05 | 01:28 | W 9 | 16.09 | Fair | CLR | 8 | -4 | 43% | 7 | 75.46 | 0.0 | ||||||
| 05 | 01:08 | W 13 | 16.09 | Fair | CLR | 8 | -4 | 43% | 6 | 75.46 | 0.0 | ||||||
| 05 | 00:30 | W 11 | 16.09 | Fair | CLR | 8 | -4 | 43% | 6 | 75.46 | 0.0 | ||||||
| 05 | 00:08 | W 15 | 16.09 | Fair | CLR | 8 | -4 | 43% | 6 | 75.46 | 0.0 | ||||||
| 04 | 23:49 | NW 11 | 16.09 | Fair | CLR | 9 | -4 | 40% | 8 | 75.46 | 0.0 | ||||||
| 04 | 23:27 | NW 17 | 16.09 | Fair | CLR | 9 | -4 | 40% | 7 | 75.46 | 0.0 | ||||||
| 04 | 23:10 | NW 19 | 16.09 | Fair | CLR | 9 | -3 | 43% | 7 | 0 | 0.0 | ||||||
| 04 | 22:42 | NW 22 | 16.09 | Fair | CLR | 10 | -3 | 40% | 7 | 75.44 | 0.0 | ||||||
| 04 | 22:23 | NW 17 | 16.09 | Fair | CLR | 10 | -3 | 40% | 8 | 75.39 | 0.0 | ||||||
| 04 | 22:03 | W 20 | 16.09 | Fair | CLR | 11 | -4 | 35% | 75.36 | 0.0 | |||||||
| 04 | 21:42 | NW 17 | 16.09 | Fair | CLR | 11 | -3 | 38% | 75.34 | 0.0 | |||||||
| 04 | 21:25 | NW 22 | 16.09 | Fair | CLR | 11 | -3 | 38% | 75.31 | 0.0 | |||||||
| 04 | 21:05 | NW 30 | 16.09 | Fair | CLR | 12 | -3 | 35% | 75.29 | 0.0 | |||||||
| 04 | 20:46 | W 20 | 16.09 | Fair | CLR | 12 | -2 | 38% | 75.26 | 0.0 | |||||||
| 04 | 20:27 | NW 26 | 16.09 | Fair | CLR | 13 | -2 | 36% | 75.21 | 0.0 | |||||||
| 04 | 20:09 | W 22 | 16.09 | Fair | CLR | 13 | -2 | 36% | 75.18 | 0.0 | |||||||
| 04 | 19:20 | W 28 | 16.09 | Fair | CLR | 14 | -2 | 33% | 75.13 | 0.0 | |||||||
| 04 | 19:05 | NW 28 | 16.09 | Fair | CLR | 15 | -2 | 31% | 75.11 | 0.0 | |||||||
| 04 | 18:42 | NW 30 | 16.09 | Fair | CLR | 16 | -1 | 31% | 75.11 | 0.0 | |||||||
| 04 | 18:22 | W 19 | 16.09 | Fair | CLR | 16 | -2 | 29% | 75.08 | 0.0 | |||||||
| 04 | 18:02 | W 28 | 16.09 | Fair | CLR | 17 | -1 | 30% | 75.06 | 0.0 | |||||||
| 04 | 17:42 | W 24 | 16.09 | Fair | CLR | 17 | -1 | 30% | 75.03 | 0.0 | |||||||
| 04 | 17:22 | W 28 | 16.09 | Fair | CLR | 17 | -2 | 27% | 75.03 | 0.0 | |||||||
| 04 | 17:02 | NW 26 | 16.09 | Fair | CLR | 17 | -4 | 24% | 75.01 | 0.0 | |||||||
| 04 | 16:42 | W 28 | 16.09 | Fair | CLR | 18 | -4 | 22% | 74.98 | 0.0 | |||||||
| 04 | 16:24 | NW 31 | 16.09 | Fair | CLR | 18 | -4 | 22% | 74.96 | 0.0 | |||||||
| 04 | 16:05 | NW 35 | 16.09 | Fair and Breezy | CLR | 19 | -3 | 22% | 74.96 | 0.0 | |||||||
| 04 | 15:47 | W 15 | 16.09 | Fair | CLR | 19 | -4 | 21% | 0 | 0.0 | |||||||
| 04 | 14:02 | NW 24 | 16.09 | Fair | CLR | 20 | 0 | 26% | 74.88 | 0.0 | |||||||
| 04 | 13:42 | NW 19 | 16.09 | Fair | CLR | 20 | 0 | 26% | 74.88 | 0.0 | |||||||
| 04 | 13:10 | W 15 | 16.09 | Fair | CLR | 21 | 2 | 29% | 74.85 | 0.0 | |||||||
| 04 | 12:51 | NW 28 | 16.09 | Fair | CLR | 21 | 2 | 29% | 74.83 | 0.0 | |||||||
| 04 | 12:24 | W 22 | 16.09 | Fair | CLR | 20 | 4 | 35% | 74.83 | 0.0 | |||||||
| 04 | 12:04 | W 20 | 16.09 | Fair | CLR | 21 | 4 | 33% | 74.85 | 0.0 | |||||||
| 04 | 11:45 | W 17 | 16.09 | Fair | CLR | 20 | 4 | 35% | 74.85 | 0.0 | |||||||
| 04 | 11:28 | NW 22 | 16.09 | Fair | CLR | 20 | 5 | 38% | 74.83 | 0.0 | |||||||
| 04 | 11:11 | W 20 | 16.09 | Fair | CLR | 20 | 4 | 35% | 74.83 | 0.0 | |||||||
| 04 | 10:50 | W 17 | 16.09 | Fair | CLR | 20 | 4 | 35% | 74.83 | 0.0 | |||||||
| 04 | 10:32 | W 22 | 16.09 | Fair | CLR | 20 | 4 | 35% | 74.83 | 0.0 | |||||||
| 04 | 10:04 | W 19 | 16.09 | Mostly Cloudy | BKN010 | 19 | 4 | 37% | 74.83 | 0.0 | |||||||
| 04 | 09:44 | W 17 | 16.09 | Mostly Cloudy | BKN110 | 19 | 3 | 35% | 74.83 | 0.0 | |||||||
| 04 | 09:22 | W 19 | 16.09 | Partly Cloudy | SCT110 | 20 | 3 | 33% | 74.8 | 0.0 | |||||||
| 04 | 09:03 | W 13 | 16.09 | Fair | CLR | 19 | 3 | 35% | 74.8 | 0.0 | |||||||
| 04 | 08:44 | SW 13 | 16.09 | Fair | CLR | 18 | 2 | 34% | 74.8 | 0.0 | |||||||
| 04 | 08:04 | SW 20 | 16.09 | Fair | CLR | 16 | 1 | 36% | 74.83 | 0.0 | |||||||
| 04 | 07:46 | SW 17 | 16.09 | Fair | CLR | 15 | 1 | 39% | 74.83 | 0.0 | |||||||
| 04 | 07:30 | SW 19 | 16.09 | Fair | CLR | 14 | 1 | 41% | 74.83 | 0.0 | |||||||
| 04 | 07:03 | SW 20 | 16.09 | Fair | CLR | 14 | 0 | 39% | 74.83 | 0.0 | |||||||
| 04 | 06:40 | SW 24 | 16.09 | Fair | CLR | 13 | 0 | 41% | 74.85 | 0.0 | |||||||
| 04 | 06:21 | SW 17 | 16.09 | Fair | CLR | 13 | 0 | 41% | 74.85 | 0.0 | |||||||
| 04 | 06:03 | SW 17 | 16.09 | Fair | CLR | 14 | 0 | 39% | 74.85 | 0.0 | |||||||
| 04 | 05:42 | SW 15 | 16.09 | Fair | CLR | 14 | 0 | 39% | 74.88 | 0.0 | |||||||
| 04 | 05:27 | SW 11 | 16.09 | Fair | CLR | 14 | 0 | 39% | 74.9 | 0.0 | |||||||
| 04 | 05:09 | SW 11 | 16.09 | Fair | CLR | 13 | 0 | 41% | 74.93 | 0.0 | |||||||
| 04 | 04:50 | SW 13 | 16.09 | Fair | CLR | 13 | 0 | 41% | 74.93 | 0.0 | |||||||
| 04 | 04:22 | SW 15 | 16.09 | Fair | CLR | 14 | 0 | 39% | 74.98 | 0.0 | |||||||
| 04 | 04:02 | SW 17 | 16.09 | Fair | CLR | 14 | 0 | 39% | 74.98 | 0.0 | |||||||
| 04 | 03:44 | SW 11 | 16.09 | Fair | CLR | 14 | 0 | 39% | 75.03 | 0.0 | |||||||
| 04 | 03:24 | SW 13 | 16.09 | Fair | CLR | 13 | 0 | 41% | 75.03 | 0.0 | |||||||
| 04 | 03:06 | SW 7 | 16.09 | Fair | CLR | 12 | 1 | 47% | 75.06 | 0.0 | |||||||
| 04 | 02:44 | Calm | 16.09 | Fair | CLR | 9 | 4 | 71% | 75.11 | 0.0 | |||||||
| 04 | 02:24 | Calm | 16.09 | Fair | CLR | 9 | 5 | 76% | 75.11 | 0.0 | |||||||
| 04 | 02:09 | Calm | 16.09 | Fair | CLR | 7 | 4 | 81% | 75.13 | 0.0 | |||||||
| 04 | 01:51 | Calm | 16.09 | Fair | CLR | 9 | 4 | 71% | 75.16 | 0.0 | |||||||
| 04 | 01:22 | Calm | 16.09 | Fair | CLR | 8 | 3 | 71% | 75.18 | 0.0 | |||||||
| 04 | 01:04 | Calm | 16.09 | Fair | CLR | 8 | 3 | 71% | 75.21 | 0.0 | |||||||
| 04 | 00:32 | Calm | 16.09 | Fair | CLR | 9 | 3 | 66% | 75.23 | 0.0 | |||||||
| 04 | 00:04 | Calm | 16.09 | Fair | CLR | 9 | 4 | 71% | 75.26 | 0.0 | |||||||
| 03 | 23:44 | Calm | 16.09 | Fair | CLR | 10 | 6 | 76% | 75.29 | 0.0 | |||||||
| 03 | 23:26 | Calm | 16.09 | Fair | CLR | 10 | 4 | 67% | 75.31 | 0.0 | |||||||
| 03 | 23:04 | Calm | 16.09 | Fair | CLR | 11 | 2 | 54% | 0 | 0.0 | |||||||
| 03 | 22:32 | Calm | 16.09 | Fair | CLR | 10 | 3 | 62% | 75.34 | 0.0 | |||||||
| 03 | 22:03 | Calm | 16.09 | Fair | CLR | 12 | 3 | 54% | 75.36 | 0.0 | |||||||
| 03 | 21:44 | Calm | 16.09 | Fair | CLR | 14 | 0 | 39% | 75.36 | 0.0 | |||||||
| 03 | 21:11 | SW 6 | 16.09 | Fair | CLR | 15 | 2 | 42% | 75.36 | 0.0 | |||||||
| 03 | 20:47 | Calm | 16.09 | Fair | CLR | 17 | -1 | 30% | 75.36 | 0.0 | |||||||
| 03 | 20:20 | W 7 | 16.09 | Fair | CLR | 19 | -2 | 24% | 75.34 | 0.0 | |||||||
| 03 | 20:01 | W 6 | 16.09 | Fair | CLR | 20 | -2 | 23% | 75.34 | 0.0 | |||||||
| 03 | 19:41 | W 9 | 16.09 | Fair | CLR | 20 | -2 | 23% | 75.34 | 0.0 | |||||||
| 03 | 19:22 | NW 15 | 16.09 | Fair | CLR | 20 | -3 | 21% | 75.34 | 0.0 | |||||||
| 03 | 18:48 | W 17 | 16.09 | Fair | CLR | 21 | -2 | 21% | 75.31 | 0.0 | |||||||
| 03 | 18:32 | NW 19 | 16.09 | Fair | CLR | 21 | -1 | 23% | 75.31 | 0.0 | |||||||
| 03 | 17:37 | NW 19 | 16.09 | Fair | CLR | 22 | 3 | 29% | 75.31 | 0.0 | |||||||
| 03 | 16:41 | NW 26 | 16.09 | Fair | CLR | 22 | 2 | 27% | 75.31 | 0.0 | |||||||
| 03 | 16:21 | NW 24 | 16.09 | Fair | CLR | 22 | 2 | 27% | 75.31 | 0.0 | |||||||
| 03 | 16:04 | NW 24 | 16.09 | Fair | CLR | 22 | 2 | 27% | 75.34 | 0.0 | |||||||
| 03 | 15:42 | NW 28 | 16.09 | Fair | CLR | 22 | 2 | 27% | 75.36 | 0.0 | |||||||
| 03 | 15:24 | N 24 | 16.09 | Fair | CLR | 22 | 3 | 29% | 0 | 0.0 | |||||||
| 03 | 15:04 | N 20 | 16.09 | Fair | CLR | 22 | 3 | 29% | 75.36 | 0.0 | |||||||
| 03 | 14:47 | NW 22 | 16.09 | Fair | CLR | 22 | 4 | 31% | 75.36 | 0.0 | |||||||
| 03 | 14:30 | NW 24 | 16.09 | Fair | CLR | 21 | 4 | 33% | 75.36 | 0.0 | |||||||
| 03 | 14:03 | NW 22 | 16.09 | Fair | CLR | 21 | 3 | 31% | 75.36 | 0.0 | |||||||
| 03 | 13:42 | NW 17 | 16.09 | Fair | CLR | 21 | 4 | 33% | 75.39 | 0.0 | |||||||
| 03 | 13:23 | N 17 | 16.09 | Fair | CLR | 21 | 5 | 35% | 75.39 | 0.0 | |||||||
| 03 | 13:05 | NW 15 | 16.09 | Fair | CLR | 21 | 4 | 33% | 75.39 | 0.0 | |||||||
| 03 | 12:45 | W 9 | 16.09 | Fair | CLR | 20 | 3 | 33% | 75.41 | 0.0 | |||||||
| 03 | 12:28 | NW 11 | 16.09 | Fair | CLR | 20 | 4 | 35% | 75.41 | 0.0 | |||||||
| 03 | 12:00 | W 7 | 16.09 | Fair | CLR | 19 | 3 | 35% | 75.44 | 0.0 | |||||||
| 03 | 11:41 | W 9 | 16.09 | Fair | CLR | 19 | 3 | 35% | 75.44 | 0.0 | |||||||
| 03 | 11:24 | W 7 | 16.09 | Fair | CLR | 19 | 3 | 35% | 75.44 | 0.0 | |||||||
| 03 | 11:05 | W 9 | 16.09 | Fair | CLR | 18 | 2 | 34% | 75.44 | 0.0 | |||||||
| 03 | 10:47 | SW 11 | 16.09 | Fair | CLR | 18 | 2 | 34% | 75.44 | 0.0 | |||||||
| 03 | 10:24 | SW 13 | 16.09 | Fair | CLR | 17 | 1 | 34% | 75.44 | 0.0 | |||||||
| 03 | 10:05 | SW 17 | 16.09 | Fair | CLR | 17 | 1 | 34% | 75.44 | 0.0 | |||||||
| 03 | 09:47 | SW 11 | 16.09 | Fair | CLR | 17 | 1 | 34% | 0 | 0.0 | |||||||
| 03 | 09:31 | SW 9 | 1.61 | Fair | CLR | 17 | 1 | 34% | 75.46 | 0.0 | |||||||
| 03 | 09:01 | W 19 | 16.09 | Fair | CLR | 16 | 0 | 34% | 75.46 | 0.0 | |||||||
| 03 | 08:45 | SW 17 | 16.09 | Fair | CLR | 15 | 0 | 36% | 75.46 | 0.0 | |||||||
| 03 | 08:30 | SW 15 | 16.09 | Fair | CLR | 15 | 0 | 36% | 75.46 | 0.0 | |||||||
| 03 | 08:01 | SW 15 | 16.09 | Partly Cloudy | SCT100 | 14 | 1 | 41% | 0 | 0.0 | |||||||
| 03 | 07:42 | SW 17 | 16.09 | Partly Cloudy | SCT100 | 14 | 1 | 41% | 0 | 0.0 | |||||||
| 03 | 07:25 | SW 17 | 16.09 | Fair | CLR | 14 | 1 | 41% | 0 | 0.0 | |||||||
| 03 | 07:05 | SW 9 | 16.09 | Partly Cloudy | SCT110 | 14 | 1 | 41% | 0 | 0.0 | |||||||
| 03 | 06:06 | S 9 | 16.09 | Partly Cloudy | SCT120 | 13 | 0 | 41% | 75.46 | 0.0 | |||||||
| 03 | 05:50 | S 9 | 16.09 | Fair | CLR | 14 | 0 | 39% | 75.46 | 0.0 | |||||||
| 03 | 05:25 | SW 22 | 16.09 | Mostly Cloudy | BKN110 | 14 | 0 | 39% | 75.49 | 0.0 | |||||||
| 03 | 04:53 | SW 19 | 16.09 | Overcast | SCT070 SCT085 OVC110 | 14 | 0 | 39% | 75.54 | 0.0 | |||||||
| Date | Time (cdt) | Wind (kph) | Vis. (km) | Weather | Sky Cond. | Air | Dwpt | Max. | Min. | Relative Humidity | Wind Chill (°C) | Heat Index (°C) | altimeter (cm) | sea level (mb) | 1 hr | 3 hr | 6 hr |
| 6 hour | |||||||||||||||||
| Temperature (ºC) | Pressure | Precipitation (cm) | |||||||||||||||